createdAt,value
2023-05-06T00:02:04.589Z,61.80
2023-05-06T00:04:32.647Z,63.87
2023-05-06T00:07:00.421Z,70.07
2023-05-06T00:09:28.189Z,64.43
2023-05-06T00:11:56.268Z,49.87
2023-05-06T00:14:24.055Z,54.57
2023-05-06T00:16:51.787Z,57.33
2023-05-06T00:19:19.574Z,61.53
2023-05-06T00:21:47.319Z,57.40
2023-05-06T00:24:15.054Z,61.20
2023-05-06T00:26:42.750Z,68.20
2023-05-06T00:29:10.408Z,57.60
2023-05-06T00:31:38.265Z,55.83
2023-05-06T00:34:05.982Z,58.00
2023-05-06T00:36:34.268Z,56.47
2023-05-06T00:39:01.922Z,56.10
2023-05-06T00:41:34.191Z,52.10
2023-05-06T00:44:01.929Z,52.77
2023-05-06T00:46:30.104Z,48.27
2023-05-06T00:48:58.192Z,56.77
2023-05-06T00:51:27.565Z,50.30
2023-05-06T00:53:55.764Z,53.10
2023-05-06T00:56:23.983Z,50.97
2023-05-06T00:58:52.015Z,50.60
2023-05-06T01:01:22.935Z,57.37
2023-05-06T01:03:55.386Z,55.93
2023-05-06T01:07:20.150Z,53.67
2023-05-06T01:10:02.484Z,55.33
2023-05-06T01:13:13.621Z,48.00
2023-05-06T01:15:55.977Z,44.10
2023-05-06T01:18:31.696Z,53.23
2023-05-06T01:21:02.035Z,58.90
2023-05-06T01:23:29.857Z,46.07
2023-05-06T01:25:57.597Z,50.70
2023-05-06T01:28:25.226Z,54.73
2023-05-06T01:31:06.962Z,50.40
2023-05-06T01:34:28.126Z,47.07
2023-05-06T01:37:21.445Z,51.30
2023-05-06T01:39:56.040Z,51.30
2023-05-06T01:42:29.181Z,47.00
2023-05-06T01:45:02.090Z,52.47
2023-05-06T01:47:30.267Z,49.27
2023-05-06T01:49:59.628Z,56.30
2023-05-06T01:52:27.949Z,59.13
2023-05-06T01:54:55.647Z,48.97
2023-05-06T01:57:23.472Z,49.40
2023-05-06T01:59:52.006Z,48.03
2023-05-06T02:02:19.748Z,46.20
2023-05-06T02:04:47.646Z,48.73
2023-05-06T02:07:15.714Z,51.87
2023-05-06T02:09:46.083Z,49.17
2023-05-06T02:12:13.757Z,52.47
2023-05-06T02:14:42.033Z,57.90
2023-05-06T02:17:09.792Z,51.77
2023-05-06T02:19:37.438Z,52.37
2023-05-06T02:22:05.085Z,58.83
2023-05-06T02:24:32.910Z,54.63
2023-05-06T02:27:02.343Z,48.17
2023-05-06T02:29:30.479Z,58.40
2023-05-06T02:31:58.187Z,49.53
2023-05-06T02:34:26.116Z,51.50
2023-05-06T02:36:54.001Z,45.20
2023-05-06T02:39:23.104Z,47.30
2023-05-06T02:41:50.739Z,53.43
2023-05-06T02:44:19.243Z,60.00
2023-05-06T02:46:46.984Z,63.87
2023-05-06T02:49:14.697Z,53.43
2023-05-06T02:51:42.428Z,57.90
2023-05-06T02:54:10.089Z,54.47
2023-05-06T02:56:37.791Z,53.80
2023-05-06T02:59:06.308Z,55.03
2023-05-06T03:01:34.024Z,53.77
2023-05-06T03:04:01.763Z,56.93
2023-05-06T03:06:29.537Z,66.63
2023-05-06T03:08:57.889Z,60.43
2023-05-06T03:11:25.769Z,62.73
2023-05-06T03:13:53.589Z,58.57
2023-05-06T03:16:21.500Z,55.80
2023-05-06T03:18:53.201Z,57.73
2023-05-06T03:21:21.244Z,62.60
2023-05-06T03:23:50.752Z,60.10
2023-05-06T03:26:21.628Z,55.50
2023-05-06T03:28:50.260Z,61.07
2023-05-06T03:31:21.080Z,54.30
2023-05-06T03:33:49.406Z,62.83
2023-05-06T03:36:18.284Z,62.60
2023-05-06T03:38:48.692Z,55.40
2023-05-06T03:41:18.403Z,66.43
2023-05-06T03:43:46.852Z,58.80
2023-05-06T03:46:17.001Z,66.33
2023-05-06T03:48:45.147Z,69.20
2023-05-06T03:51:16.629Z,66.40
2023-05-06T03:53:45.154Z,57.53
2023-05-06T03:56:13.390Z,58.17
2023-05-06T03:58:41.345Z,61.87
2023-05-06T04:01:11.824Z,66.53
2023-05-06T04:03:39.879Z,49.90
2023-05-06T04:06:08.239Z,54.50
2023-05-06T04:08:36.038Z,71.50
2023-05-06T04:11:08.955Z,71.57
2023-05-06T04:13:38.423Z,75.47
2023-05-06T04:16:12.942Z,66.40
2023-05-06T04:18:46.279Z,61.73
2023-05-06T04:21:16.762Z,81.07
2023-05-06T04:23:49.441Z,89.40
2023-05-06T04:26:22.190Z,87.43
2023-05-06T04:28:50.288Z,81.63
2023-05-06T04:31:19.108Z,94.53
2023-05-06T04:33:50.653Z,85.57
2023-05-06T04:36:24.010Z,88.87
2023-05-06T04:39:11.486Z,87.50
2023-05-06T04:41:40.926Z,79.30
2023-05-06T04:44:10.446Z,98.30
2023-05-06T04:46:38.285Z,81.97
2023-05-06T04:49:06.675Z,74.47
2023-05-06T04:51:35.550Z,70.57
2023-05-06T04:54:04.170Z,81.53
2023-05-06T04:56:32.153Z,88.37
2023-05-06T04:59:00.083Z,77.37
2023-05-06T05:01:28.789Z,84.43
2023-05-06T05:03:57.874Z,86.77
2023-05-06T05:06:25.764Z,82.63
2023-05-06T05:08:55.438Z,93.67
2023-05-06T05:11:25.300Z,78.33
2023-05-06T05:13:55.380Z,76.40
2023-05-06T05:16:24.810Z,81.90
2023-05-06T05:18:54.144Z,76.57
2023-05-06T05:21:27.959Z,76.70
2023-05-06T05:23:57.336Z,75.37
2023-05-06T05:26:25.034Z,72.70
2023-05-06T05:28:54.734Z,77.63
2023-05-06T05:31:24.405Z,67.30
2023-05-06T05:33:52.561Z,63.90
2023-05-06T05:36:23.870Z,60.00
2023-05-06T05:38:55.505Z,66.93
2023-05-06T05:41:27.001Z,63.50
2023-05-06T05:43:55.940Z,68.80
2023-05-06T05:46:24.469Z,64.50
2023-05-06T05:48:52.786Z,56.83
2023-05-06T05:51:23.464Z,52.40
2023-05-06T05:53:52.457Z,43.73
2023-05-06T05:56:22.089Z,39.67
2023-05-06T05:58:50.377Z,33.73
2023-05-06T06:01:18.525Z,28.77
2023-05-06T06:03:48.091Z,23.53
2023-05-06T06:06:16.028Z,23.27
2023-05-06T06:08:44.262Z,21.10
2023-05-06T06:11:13.712Z,20.80
2023-05-06T06:13:42.764Z,20.33
2023-05-06T06:16:11.871Z,23.90
2023-05-06T06:18:39.642Z,20.20
2023-05-06T06:21:07.958Z,19.63
2023-05-06T06:23:36.561Z,18.60
2023-05-06T06:26:04.800Z,21.13
2023-05-06T06:28:34.091Z,19.37
2023-05-06T06:31:02.091Z,18.83
2023-05-06T06:33:29.748Z,19.57
2023-05-06T06:35:58.764Z,20.87
2023-05-06T06:38:26.641Z,24.50
2023-05-06T06:40:56.010Z,22.93
2023-05-06T06:43:24.860Z,17.07
2023-05-06T06:46:15.905Z,19.10
2023-05-06T06:48:43.644Z,20.10
2023-05-06T06:51:11.195Z,18.17
2023-05-06T06:53:38.804Z,16.60
2023-05-06T06:56:13.197Z,17.80
2023-05-06T06:58:40.963Z,19.13
2023-05-06T07:01:08.900Z,20.60
2023-05-06T07:03:37.032Z,20.70
2023-05-06T07:06:04.843Z,16.40
2023-05-06T07:08:32.501Z,21.63
2023-05-06T07:11:00.178Z,20.53
2023-05-06T07:13:27.800Z,17.47
2023-05-06T07:15:55.481Z,21.47
2023-05-06T07:18:23.150Z,16.47
2023-05-06T07:20:50.894Z,18.50
2023-05-06T07:23:19.499Z,20.30
2023-05-06T07:25:47.155Z,19.47
2023-05-06T07:28:15.808Z,17.80
2023-05-06T07:30:43.770Z,18.73
2023-05-06T07:33:11.484Z,19.17
2023-05-06T07:35:39.938Z,18.73
2023-05-06T07:38:07.648Z,17.37
2023-05-06T07:40:35.971Z,17.80
2023-05-06T07:43:04.333Z,18.20
2023-05-06T07:45:31.953Z,18.67
2023-05-06T07:47:59.627Z,19.43
2023-05-06T07:50:27.235Z,21.00
2023-05-06T07:52:54.771Z,19.63
2023-05-06T07:55:22.334Z,20.60
2023-05-06T07:57:50.711Z,19.27
2023-05-06T08:00:19.088Z,20.10
2023-05-06T08:02:48.244Z,20.67
2023-05-06T08:05:17.341Z,17.90
2023-05-06T08:07:45.134Z,17.20
2023-05-06T08:10:12.761Z,15.43
2023-05-06T08:12:40.373Z,16.23
2023-05-06T08:15:10.025Z,15.50
2023-05-06T08:17:38.193Z,16.00
2023-05-06T08:20:08.340Z,13.67
2023-05-06T08:22:35.984Z,10.50
2023-05-06T08:25:04.014Z,12.67
2023-05-06T08:27:31.880Z,9.63
2023-05-06T08:29:59.515Z,11.10
2023-05-06T08:32:27.174Z,12.00
2023-05-06T08:34:54.833Z,8.73
2023-05-06T08:37:22.391Z,12.23
2023-05-06T08:39:50.036Z,14.87
2023-05-06T08:42:18.388Z,13.10
2023-05-06T08:44:47.866Z,10.90
2023-05-06T08:47:16.169Z,8.30
2023-05-06T08:49:43.750Z,15.30
2023-05-06T08:52:12.775Z,10.77
2023-05-06T08:54:42.817Z,9.57
2023-05-06T08:57:14.283Z,9.60
2023-05-06T08:59:43.118Z,8.37
2023-05-06T09:02:11.644Z,8.57
2023-05-06T09:04:40.482Z,8.43
2023-05-06T09:07:09.111Z,7.23
2023-05-06T09:09:36.837Z,9.30
2023-05-06T09:12:09.782Z,7.30
2023-05-06T09:14:37.554Z,7.10
2023-05-06T09:17:05.721Z,9.00
2023-05-06T09:19:38.732Z,7.23
2023-05-06T09:22:06.849Z,5.70
2023-05-06T09:24:34.787Z,8.03
2023-05-06T09:27:03.331Z,7.60
2023-05-06T09:29:30.994Z,7.53
2023-05-06T09:32:04.486Z,6.03
2023-05-06T09:34:32.114Z,5.57
2023-05-06T09:36:59.706Z,6.07
2023-05-06T09:39:27.924Z,7.23
2023-05-06T09:41:55.795Z,5.50
2023-05-06T09:44:24.627Z,6.73
2023-05-06T09:46:52.564Z,6.07
2023-05-06T09:49:20.885Z,7.40
2023-05-06T09:51:51.761Z,5.03
2023-05-06T09:54:20.367Z,7.47
2023-05-06T09:56:50.779Z,5.30
2023-05-06T09:59:21.213Z,3.80
2023-05-06T10:01:51.857Z,4.57
2023-05-06T10:04:26.682Z,4.20
2023-05-06T10:07:03.406Z,3.97
2023-05-06T10:09:32.114Z,4.87
2023-05-06T10:12:02.341Z,3.73
2023-05-06T10:14:30.151Z,4.00
2023-05-06T10:16:59.732Z,5.07
2023-05-06T10:19:30.726Z,7.40
2023-05-06T10:22:41.810Z,4.53
2023-05-06T10:25:43.948Z,3.80
2023-05-06T10:28:27.911Z,4.50
2023-05-06T10:31:00.856Z,6.27
2023-05-06T10:33:30.521Z,6.13
2023-05-06T10:36:24.054Z,5.50
2023-05-06T10:39:02.894Z,7.23
2023-05-06T10:41:37.244Z,3.90
2023-05-06T10:44:06.195Z,3.70
2023-05-06T10:47:00.643Z,4.07
2023-05-06T10:49:29.256Z,5.00
2023-05-06T10:52:17.071Z,3.70
2023-05-06T10:54:51.882Z,3.33
2023-05-06T10:57:27.349Z,2.77
2023-05-06T10:59:56.111Z,5.13
2023-05-06T11:02:24.310Z,4.63
2023-05-06T11:05:02.001Z,3.20
2023-05-06T11:07:29.820Z,4.03
2023-05-06T11:10:07.025Z,3.27
2023-05-06T11:12:55.969Z,4.73
2023-05-06T11:15:41.393Z,2.70
2023-05-06T11:18:37.153Z,2.90
2023-05-06T11:21:31.155Z,3.70
2023-05-06T11:23:58.825Z,3.30
2023-05-06T11:26:26.430Z,4.30
2023-05-06T11:28:54.875Z,3.87
2023-05-06T11:31:23.418Z,3.40
2023-05-06T11:33:54.473Z,2.67
2023-05-06T11:36:22.999Z,3.87
2023-05-06T11:38:53.162Z,5.80
2023-05-06T11:41:23.740Z,3.23
2023-05-06T11:43:54.014Z,3.80
2023-05-06T11:46:25.473Z,2.63
2023-05-06T11:48:53.136Z,2.63
2023-05-06T11:51:24.750Z,4.47
2023-05-06T11:54:22.744Z,7.50
2023-05-06T11:56:56.381Z,2.80
2023-05-06T11:59:40.437Z,4.87
2023-05-06T12:02:13.684Z,2.10
2023-05-06T12:04:50.262Z,4.30
2023-05-06T12:07:18.153Z,2.97
2023-05-06T12:09:51.608Z,7.03
2023-05-06T12:12:24.197Z,4.30
2023-05-06T12:14:55.545Z,3.90
2023-05-06T12:17:24.158Z,3.70
2023-05-06T12:19:52.413Z,3.33
2023-05-06T12:22:27.351Z,3.93
2023-05-06T12:24:54.965Z,4.27
2023-05-06T12:27:34.587Z,3.83
2023-05-06T12:30:04.689Z,3.70
2023-05-06T12:32:32.878Z,2.77
2023-05-06T12:35:05.854Z,4.60
2023-05-06T12:37:33.662Z,6.53
2023-05-06T12:40:01.626Z,3.47
2023-05-06T12:42:29.549Z,2.77
2023-05-06T12:44:57.338Z,2.10
2023-05-06T12:47:26.734Z,2.93
2023-05-06T12:49:59.404Z,2.50
2023-05-06T12:52:30.777Z,2.57
2023-05-06T12:55:01.891Z,3.70
2023-05-06T12:57:29.493Z,2.37
2023-05-06T12:59:57.383Z,4.33
2023-05-06T13:02:25.014Z,2.27
2023-05-06T13:04:52.807Z,3.43
2023-05-06T13:07:20.674Z,2.50
2023-05-06T13:09:48.324Z,3.03
2023-05-06T13:12:15.996Z,2.97
2023-05-06T13:14:44.293Z,3.70
2023-05-06T13:17:12.036Z,2.30
2023-05-06T13:19:40.006Z,2.83
2023-05-06T13:22:07.607Z,3.90
2023-05-06T13:24:35.260Z,3.90
2023-05-06T13:27:03.294Z,4.80
2023-05-06T13:29:31.977Z,2.30
2023-05-06T13:32:00.788Z,4.13
2023-05-06T13:34:28.387Z,2.00
2023-05-06T13:36:56.896Z,2.10
2023-05-06T13:39:26.094Z,2.47
2023-05-06T13:41:54.320Z,2.27
2023-05-06T13:44:22.726Z,2.50
2023-05-06T13:46:50.579Z,3.60
2023-05-06T13:49:20.359Z,2.27
2023-05-06T13:51:48.672Z,2.43
2023-05-06T13:54:21.188Z,2.67
2023-05-06T13:56:53.163Z,2.10
2023-05-06T13:59:20.849Z,2.60
2023-05-06T14:01:50.171Z,3.60
2023-05-06T14:04:17.847Z,1.90
2023-05-06T14:06:45.474Z,2.03
2023-05-06T14:09:13.207Z,4.43
2023-05-06T14:11:40.876Z,6.70
2023-05-06T14:14:08.457Z,2.90
2023-05-06T14:16:36.108Z,2.90
2023-05-06T14:19:04.782Z,3.23
2023-05-06T14:21:33.754Z,2.70
2023-05-06T14:24:01.578Z,3.27
2023-05-06T14:26:29.301Z,5.97
2023-05-06T14:28:56.841Z,3.60
2023-05-06T14:31:24.505Z,2.80
2023-05-06T14:33:52.180Z,7.87
2023-05-06T14:36:20.784Z,2.90
2023-05-06T14:38:48.417Z,2.37
2023-05-06T14:41:15.999Z,2.83
2023-05-06T14:43:43.655Z,3.50
2023-05-06T14:46:11.428Z,3.77
2023-05-06T14:48:39.668Z,2.40
2023-05-06T14:51:07.248Z,2.60
2023-05-06T14:53:34.922Z,5.20
2023-05-06T14:56:05.836Z,4.40
2023-05-06T14:58:37.776Z,3.00
2023-05-06T15:01:09.657Z,3.77
2023-05-06T15:03:41.362Z,3.40
2023-05-06T15:06:12.551Z,2.47
2023-05-06T15:08:45.966Z,2.50
2023-05-06T15:11:17.154Z,3.93
2023-05-06T15:13:48.530Z,3.63
2023-05-06T15:16:19.064Z,2.80
2023-05-06T15:18:47.427Z,2.30
2023-05-06T15:21:15.924Z,4.43
2023-05-06T15:23:47.891Z,2.67
2023-05-06T15:26:16.010Z,3.00
2023-05-06T15:28:43.555Z,2.43
2023-05-06T15:31:11.255Z,3.20
2023-05-06T15:33:41.906Z,2.47
2023-05-06T15:36:10.353Z,3.13
2023-05-06T15:39:00.873Z,2.93
2023-05-06T15:41:35.352Z,3.93
2023-05-06T15:44:06.109Z,3.10
2023-05-06T15:46:34.408Z,3.60
2023-05-06T15:49:31.959Z,6.13
2023-05-06T15:51:50.049Z,3.90
2023-05-06T15:54:20.312Z,5.50
2023-05-06T15:56:47.988Z,5.10
2023-05-06T15:59:15.780Z,4.27
2023-05-06T16:02:24.430Z,5.83
2023-05-06T16:04:31.711Z,5.00
2023-05-06T16:06:59.660Z,8.00
2023-05-06T16:09:27.933Z,6.63
2023-05-06T16:11:55.782Z,6.07
2023-05-06T16:14:23.420Z,6.47
2023-05-06T16:16:51.751Z,7.47
2023-05-06T16:19:19.912Z,5.43
2023-05-06T16:21:48.469Z,5.97
2023-05-06T16:24:16.255Z,7.60
2023-05-06T16:26:43.818Z,7.20
2023-05-06T16:29:11.656Z,7.13
2023-05-06T16:31:39.494Z,5.77
2023-05-06T16:34:07.146Z,5.87
2023-05-06T16:36:34.733Z,4.77
2023-05-06T16:39:02.373Z,4.97
2023-05-06T16:41:30.039Z,6.60
2023-05-06T16:43:57.787Z,5.33
2023-05-06T16:46:26.400Z,7.93
2023-05-06T16:48:54.593Z,9.10
2023-05-06T16:51:22.808Z,7.00
2023-05-06T16:53:51.074Z,9.73
2023-05-06T16:56:18.592Z,5.33
2023-05-06T16:58:46.241Z,4.80
2023-05-06T17:01:13.849Z,4.90
2023-05-06T17:03:41.497Z,5.53
2023-05-06T17:06:09.074Z,8.70
2023-05-06T17:08:37.204Z,5.30
2023-05-06T17:11:07.382Z,7.20
2023-05-06T17:13:35.649Z,4.97
2023-05-06T17:16:03.187Z,6.50
2023-05-06T17:18:30.843Z,5.20
2023-05-06T17:20:58.893Z,6.87
2023-05-06T17:23:26.586Z,6.83
2023-05-06T17:25:57.473Z,4.20
2023-05-06T17:28:25.120Z,5.47
2023-05-06T17:30:52.754Z,7.57
2023-05-06T17:33:21.989Z,6.67
2023-05-06T17:35:49.700Z,7.73
2023-05-06T17:38:17.308Z,6.20
2023-05-06T17:40:45.482Z,8.30
2023-05-06T17:43:13.027Z,15.60
2023-05-06T17:45:41.823Z,14.47
2023-05-06T17:48:09.443Z,15.33
2023-05-06T17:50:37.187Z,14.50
2023-05-06T17:53:04.803Z,18.00
2023-05-06T17:55:32.400Z,13.33
2023-05-06T17:58:00.007Z,12.10
2023-05-06T18:00:27.539Z,10.03
2023-05-06T18:02:56.398Z,10.47
2023-05-06T18:05:25.901Z,9.43
2023-05-06T18:07:53.784Z,9.53
2023-05-06T18:10:21.599Z,11.10
2023-05-06T18:12:50.007Z,8.33
2023-05-06T18:15:17.667Z,10.23
2023-05-06T18:17:46.227Z,9.43
2023-05-06T18:20:14.262Z,14.07
2023-05-06T18:22:43.033Z,19.33
2023-05-06T18:25:11.312Z,13.00
2023-05-06T18:27:39.116Z,8.73
2023-05-06T18:30:08.094Z,9.73
2023-05-06T18:32:36.071Z,8.80
2023-05-06T18:35:03.947Z,7.27
2023-05-06T18:37:31.489Z,6.70
2023-05-06T18:39:59.081Z,8.00
2023-05-06T18:42:30.477Z,8.00
2023-05-06T18:44:58.108Z,8.03
2023-05-06T18:47:25.961Z,10.70
2023-05-06T18:49:53.755Z,8.60
2023-05-06T18:52:22.293Z,10.23
2023-05-06T18:54:50.348Z,10.37
2023-05-06T18:57:19.658Z,10.37
2023-05-06T18:59:47.330Z,9.20
2023-05-06T19:02:15.050Z,9.20
2023-05-06T19:04:43.545Z,15.27
2023-05-06T19:07:12.438Z,7.20
2023-05-06T19:09:43.590Z,7.47
2023-05-06T19:12:11.625Z,8.40
2023-05-06T19:14:39.140Z,9.57
2023-05-06T19:17:06.897Z,8.60
2023-05-06T19:19:34.550Z,9.60
2023-05-06T19:22:02.378Z,9.27
2023-05-06T19:24:31.289Z,9.70
2023-05-06T19:26:59.230Z,9.07
2023-05-06T19:29:26.820Z,12.80
2023-05-06T19:31:54.812Z,14.37
2023-05-06T19:34:22.439Z,9.20
2023-05-06T19:36:50.024Z,8.40
2023-05-06T19:39:17.623Z,8.63
2023-05-06T19:41:45.435Z,10.90
2023-05-06T19:44:13.221Z,8.67
2023-05-06T19:46:40.994Z,8.67
2023-05-06T19:49:08.654Z,13.33
2023-05-06T19:51:36.252Z,12.67
2023-05-06T19:54:04.056Z,10.53
2023-05-06T19:56:31.680Z,10.83
2023-05-06T19:58:59.920Z,9.60
2023-05-06T20:01:27.563Z,15.87
2023-05-06T20:03:55.820Z,9.80
2023-05-06T20:06:23.551Z,14.13
2023-05-06T20:08:51.096Z,10.03
2023-05-06T20:11:18.738Z,17.93
2023-05-06T20:13:46.536Z,10.73
2023-05-06T20:16:14.126Z,11.90
2023-05-06T20:18:42.903Z,11.00
2023-05-06T20:21:10.605Z,11.53
2023-05-06T20:23:38.263Z,12.60
2023-05-06T20:26:06.455Z,9.40
2023-05-06T20:28:37.766Z,11.40
2023-05-06T20:31:07.276Z,11.47
2023-05-06T20:33:34.980Z,8.50
2023-05-06T20:36:04.056Z,9.10
2023-05-06T20:38:31.729Z,9.17
2023-05-06T20:41:01.728Z,10.33
2023-05-06T20:43:30.573Z,10.03
2023-05-06T20:45:58.166Z,8.90
2023-05-06T20:48:27.845Z,9.50
2023-05-06T20:50:57.211Z,11.73
2023-05-06T20:53:26.878Z,10.90
2023-05-06T20:55:54.623Z,10.00
2023-05-06T20:58:22.354Z,10.20
2023-05-06T21:00:50.622Z,10.67
2023-05-06T21:03:18.410Z,9.90
2023-05-06T21:05:46.187Z,9.83
2023-05-06T21:08:13.919Z,11.13
2023-05-06T21:10:41.661Z,12.17
2023-05-06T21:13:09.353Z,11.13
2023-05-06T21:15:38.251Z,10.90
2023-05-06T21:18:06.189Z,12.77
2023-05-06T21:20:34.838Z,12.00
2023-05-06T21:23:03.602Z,11.80
2023-05-06T21:25:31.394Z,10.80
2023-05-06T21:28:03.277Z,13.47
2023-05-06T21:30:31.266Z,12.00
2023-05-06T21:32:58.968Z,13.43
2023-05-06T21:35:27.529Z,13.30
2023-05-06T21:37:55.117Z,13.63
2023-05-06T21:40:22.938Z,15.03
2023-05-06T21:42:53.120Z,15.60
2023-05-06T21:45:21.841Z,16.27
2023-05-06T21:47:49.822Z,17.30
2023-05-06T21:50:17.661Z,18.40
2023-05-06T21:52:45.964Z,18.03
2023-05-06T21:55:13.861Z,17.47
2023-05-06T21:57:41.572Z,19.73
2023-05-06T22:00:12.145Z,14.50
2023-05-06T22:02:41.449Z,17.73
2023-05-06T22:05:10.586Z,18.27
2023-05-06T22:07:38.561Z,18.23
2023-05-06T22:10:07.340Z,18.60
2023-05-06T22:12:36.651Z,20.40
2023-05-06T22:15:05.402Z,21.03
2023-05-06T22:17:34.767Z,18.30
2023-05-06T22:20:02.605Z,19.50
2023-05-06T22:22:30.769Z,18.43
2023-05-06T22:24:58.484Z,19.33
2023-05-06T22:27:26.069Z,18.83
2023-05-06T22:29:53.749Z,17.27
2023-05-06T22:32:21.936Z,17.07
2023-05-06T22:34:49.613Z,16.50
2023-05-06T22:37:17.243Z,18.80
2023-05-06T22:39:45.026Z,19.33
2023-05-06T22:42:12.653Z,18.63
2023-05-06T22:44:40.413Z,18.73
2023-05-06T22:47:08.006Z,20.17
2023-05-06T22:49:36.526Z,19.03
2023-05-06T22:52:05.714Z,17.17
2023-05-06T22:54:33.655Z,18.80
2023-05-06T22:57:02.047Z,22.30
2023-05-06T22:59:30.276Z,19.73
2023-05-06T23:01:57.932Z,21.80
2023-05-06T23:04:25.551Z,21.87
2023-05-06T23:06:53.244Z,22.53
2023-05-06T23:09:21.169Z,22.90
2023-05-06T23:11:48.909Z,20.17
2023-05-06T23:14:17.462Z,20.97
2023-05-06T23:16:45.103Z,19.50
2023-05-06T23:19:12.989Z,20.53
2023-05-06T23:21:44.136Z,18.50
2023-05-06T23:24:12.421Z,19.73
2023-05-06T23:26:40.155Z,19.70
2023-05-06T23:29:07.822Z,21.40
2023-05-06T23:31:35.454Z,19.03
2023-05-06T23:34:03.495Z,20.77
2023-05-06T23:36:31.230Z,23.57
2023-05-06T23:38:58.747Z,19.43
2023-05-06T23:41:26.318Z,21.50
2023-05-06T23:43:54.008Z,25.97
2023-05-06T23:46:21.570Z,20.53
2023-05-06T23:48:49.458Z,19.60
2023-05-06T23:51:17.072Z,20.20
2023-05-06T23:53:45.508Z,21.17
2023-05-06T23:56:13.201Z,25.20
2023-05-06T23:58:41.340Z,20.70
